createdAt,value
2022-12-26T00:01:42.842Z,78.90
2022-12-26T00:04:51.760Z,79.28
2022-12-26T00:07:00.387Z,79.61
2022-12-26T00:09:27.641Z,79.12
2022-12-26T00:11:54.910Z,78.22
2022-12-26T00:14:22.202Z,79.20
2022-12-26T00:16:49.663Z,80.11
2022-12-26T00:19:16.940Z,79.58
2022-12-26T00:21:44.387Z,81.34
2022-12-26T00:24:12.157Z,81.38
2022-12-26T00:26:39.693Z,79.94
2022-12-26T00:29:07.011Z,82.32
2022-12-26T00:31:35.897Z,81.54
2022-12-26T00:34:03.458Z,81.33
2022-12-26T00:36:32.892Z,80.62
2022-12-26T00:39:01.597Z,80.60
2022-12-26T00:41:30.506Z,80.25
2022-12-26T00:43:58.039Z,79.10
2022-12-26T00:46:26.477Z,80.06
2022-12-26T00:48:53.997Z,80.45
2022-12-26T00:51:21.841Z,80.10
2022-12-26T00:53:49.325Z,80.92
2022-12-26T00:56:16.896Z,80.58
2022-12-26T00:58:44.389Z,79.66
2022-12-26T01:01:17.486Z,81.27
2022-12-26T01:03:46.023Z,80.58
2022-12-26T01:06:13.472Z,80.43
2022-12-26T01:08:40.969Z,79.92
2022-12-26T01:11:10.925Z,81.53
2022-12-26T01:13:38.685Z,81.42
2022-12-26T01:16:06.999Z,82.02
2022-12-26T01:18:35.173Z,80.37
2022-12-26T01:21:05.900Z,80.09
2022-12-26T01:23:33.453Z,81.20
2022-12-26T01:26:18.264Z,80.54
2022-12-26T01:28:49.127Z,79.82
2022-12-26T01:31:17.078Z,80.94
2022-12-26T01:33:44.446Z,80.40
2022-12-26T01:36:12.006Z,80.93
2022-12-26T01:38:39.274Z,80.57
2022-12-26T01:41:21.908Z,80.33
2022-12-26T01:43:52.291Z,80.12
2022-12-26T01:46:41.846Z,79.20
2022-12-26T01:49:37.743Z,78.81
2022-12-26T01:52:08.902Z,77.65
2022-12-26T01:54:42.622Z,80.28
2022-12-26T01:57:20.615Z,79.80
2022-12-26T01:59:48.369Z,81.02
2022-12-26T02:02:17.084Z,79.63
2022-12-26T02:05:06.181Z,78.89
2022-12-26T02:07:41.040Z,80.42
2022-12-26T02:10:13.474Z,80.29
2022-12-26T02:12:41.232Z,79.81
2022-12-26T02:15:12.887Z,79.78
2022-12-26T02:17:41.708Z,80.45
2022-12-26T02:20:29.551Z,79.47
2022-12-26T02:23:34.519Z,79.32
2022-12-26T02:26:17.969Z,79.58
2022-12-26T02:29:12.796Z,79.67
2022-12-26T02:31:51.711Z,79.34
2022-12-26T02:34:50.152Z,79.88
2022-12-26T02:37:56.091Z,79.62
2022-12-26T02:40:29.122Z,79.37
2022-12-26T02:43:06.744Z,79.47
2022-12-26T02:45:59.669Z,80.52
2022-12-26T02:48:39.146Z,79.16
2022-12-26T02:51:44.073Z,80.25
2022-12-26T02:54:46.710Z,79.31
2022-12-26T02:57:37.604Z,79.84
2022-12-26T03:00:44.132Z,79.68
2022-12-26T03:03:33.658Z,79.72
2022-12-26T03:06:39.111Z,79.99
2022-12-26T03:09:35.722Z,78.88
2022-12-26T03:12:26.617Z,80.24
2022-12-26T03:15:02.833Z,79.55
2022-12-26T03:17:37.002Z,79.54
2022-12-26T03:20:17.114Z,79.18
2022-12-26T03:22:47.462Z,79.55
2022-12-26T03:25:48.724Z,80.14
2022-12-26T03:28:16.817Z,80.35
2022-12-26T03:30:50.309Z,79.16
2022-12-26T03:33:48.813Z,79.83
2022-12-26T03:36:24.279Z,79.29
2022-12-26T03:39:13.079Z,79.26
2022-12-26T03:42:09.162Z,79.38
2022-12-26T03:44:57.692Z,80.35
2022-12-26T03:47:57.546Z,79.62
2022-12-26T03:50:51.847Z,79.48
2022-12-26T03:53:47.417Z,79.57
2022-12-26T03:56:40.584Z,79.01
2022-12-26T03:59:30.158Z,79.40
2022-12-26T04:02:22.169Z,80.77
2022-12-26T04:05:08.800Z,80.87
2022-12-26T04:08:00.182Z,78.77
2022-12-26T04:10:51.983Z,78.06
2022-12-26T04:13:42.387Z,80.89
2022-12-26T04:17:08.786Z,80.18
2022-12-26T04:19:54.670Z,80.12
2022-12-26T04:22:54.978Z,80.18
2022-12-26T04:25:49.352Z,80.52
2022-12-26T04:28:38.414Z,80.09
2022-12-26T04:31:36.614Z,79.95
2022-12-26T04:34:26.437Z,80.26
2022-12-26T04:37:17.426Z,80.14
2022-12-26T04:40:08.041Z,80.16
2022-12-26T04:42:54.525Z,80.10
2022-12-26T04:45:22.389Z,80.06
2022-12-26T04:48:09.599Z,80.17
2022-12-26T04:50:37.043Z,79.70
2022-12-26T04:53:04.289Z,79.53
2022-12-26T04:55:33.004Z,79.37
2022-12-26T04:58:00.415Z,79.69
2022-12-26T05:00:29.080Z,79.77
2022-12-26T05:03:18.965Z,79.74
2022-12-26T05:06:07.724Z,80.30
2022-12-26T05:08:59.261Z,78.62
2022-12-26T05:11:33.746Z,79.46
2022-12-26T05:14:01.781Z,80.41
2022-12-26T05:16:48.212Z,80.35
2022-12-26T05:19:36.216Z,79.43
2022-12-26T05:22:23.339Z,78.78
2022-12-26T05:25:09.821Z,78.75
2022-12-26T05:27:59.061Z,80.07
2022-12-26T05:30:26.557Z,79.77
2022-12-26T05:33:12.382Z,81.01
2022-12-26T05:35:40.015Z,78.06
2022-12-26T05:38:09.337Z,79.67
2022-12-26T05:40:36.593Z,81.60
2022-12-26T05:43:03.958Z,80.05
2022-12-26T05:45:32.589Z,81.06
2022-12-26T05:48:01.161Z,80.52
2022-12-26T05:50:28.858Z,81.16
2022-12-26T05:52:59.966Z,79.12
2022-12-26T05:55:27.329Z,79.68
2022-12-26T05:57:54.572Z,78.86
2022-12-26T06:00:21.902Z,77.06
2022-12-26T06:02:49.255Z,79.03
2022-12-26T06:05:17.134Z,80.30
2022-12-26T06:07:44.777Z,77.48
2022-12-26T06:10:12.426Z,79.92
2022-12-26T06:12:39.947Z,79.82
2022-12-26T06:15:07.676Z,79.17
2022-12-26T06:17:35.009Z,80.22
2022-12-26T06:20:02.248Z,79.12
2022-12-26T06:22:29.852Z,78.07
2022-12-26T06:24:57.155Z,78.49
2022-12-26T06:27:24.779Z,77.73
2022-12-26T06:29:52.655Z,77.92
2022-12-26T06:32:19.925Z,77.24
2022-12-26T06:34:48.179Z,77.58
2022-12-26T06:37:15.643Z,78.18
2022-12-26T06:39:42.904Z,77.64
2022-12-26T06:42:10.172Z,77.88
2022-12-26T06:44:38.476Z,77.50
2022-12-26T06:47:05.859Z,77.56
2022-12-26T06:49:33.538Z,78.26
2022-12-26T06:52:00.845Z,77.39
2022-12-26T06:54:28.242Z,77.86
2022-12-26T06:56:55.557Z,78.31
2022-12-26T06:59:22.894Z,78.50
2022-12-26T07:01:50.451Z,77.78
2022-12-26T07:04:17.835Z,79.91
2022-12-26T07:06:45.021Z,78.65
2022-12-26T07:09:14.708Z,80.15
2022-12-26T07:11:44.467Z,79.71
2022-12-26T07:14:11.731Z,79.36
2022-12-26T07:16:40.759Z,79.69
2022-12-26T07:19:09.578Z,78.29
2022-12-26T07:21:40.787Z,78.43
2022-12-26T07:24:15.206Z,79.56
2022-12-26T07:26:42.978Z,78.99
2022-12-26T07:29:11.277Z,78.60
2022-12-26T07:31:39.142Z,80.25
2022-12-26T07:34:06.428Z,79.44
2022-12-26T07:36:33.724Z,79.77
2022-12-26T07:39:00.963Z,79.48
2022-12-26T07:41:47.929Z,78.83
2022-12-26T07:44:15.337Z,77.98
2022-12-26T07:46:43.188Z,79.31
2022-12-26T07:49:12.182Z,80.18
2022-12-26T07:51:39.586Z,81.04
2022-12-26T07:54:10.880Z,80.67
2022-12-26T07:56:39.670Z,79.49
2022-12-26T07:59:07.202Z,79.65
2022-12-26T08:01:34.973Z,80.52
2022-12-26T08:04:02.471Z,79.66
2022-12-26T08:06:29.785Z,79.07
2022-12-26T08:08:58.641Z,79.07
2022-12-26T08:11:26.048Z,77.64
2022-12-26T08:13:53.295Z,79.58
2022-12-26T08:16:20.706Z,80.03
2022-12-26T08:18:48.141Z,80.36
2022-12-26T08:21:15.751Z,78.90
2022-12-26T08:23:43.076Z,79.82
2022-12-26T08:26:16.341Z,76.91
2022-12-26T08:28:43.816Z,79.06
2022-12-26T08:31:12.763Z,78.73
2022-12-26T08:33:40.033Z,78.48
2022-12-26T08:36:10.002Z,76.50
2022-12-26T08:38:37.419Z,77.49
2022-12-26T08:41:05.193Z,78.03
2022-12-26T08:44:03.170Z,78.46
2022-12-26T08:46:21.483Z,78.19
2022-12-26T08:48:49.646Z,79.64
2022-12-26T08:51:19.974Z,76.63
2022-12-26T08:53:49.765Z,75.54
2022-12-26T08:56:18.834Z,76.13
2022-12-26T08:58:46.411Z,77.43
2022-12-26T09:01:16.518Z,76.51
2022-12-26T09:03:44.020Z,77.85
2022-12-26T09:06:12.747Z,77.04
2022-12-26T09:08:40.836Z,75.80
2022-12-26T09:11:13.033Z,75.26
2022-12-26T09:13:41.583Z,74.04
2022-12-26T09:16:14.852Z,74.05
2022-12-26T09:18:43.519Z,75.72
2022-12-26T09:21:12.108Z,72.87
2022-12-26T09:23:39.982Z,76.58
2022-12-26T09:26:11.266Z,75.83
2022-12-26T09:28:38.958Z,76.88
2022-12-26T09:31:11.940Z,76.13
2022-12-26T09:33:39.675Z,77.42
2022-12-26T09:36:14.475Z,78.01
2022-12-26T09:38:43.855Z,76.20
2022-12-26T09:41:14.785Z,75.72
2022-12-26T09:43:53.831Z,77.40
2022-12-26T09:46:25.141Z,75.11
2022-12-26T09:48:58.263Z,76.95
2022-12-26T09:51:27.109Z,75.30
2022-12-26T09:53:54.873Z,76.23
2022-12-26T09:59:16.842Z,76.80
2022-12-26T10:01:44.779Z,78.39
2022-12-26T10:04:29.074Z,77.79
2022-12-26T10:07:24.523Z,76.72
2022-12-26T10:10:05.546Z,77.71
2022-12-26T10:12:52.563Z,76.08
2022-12-26T10:15:53.425Z,75.28
2022-12-26T10:18:36.834Z,76.46
2022-12-26T10:21:14.893Z,76.36
2022-12-26T10:23:45.674Z,75.84
2022-12-26T10:26:21.744Z,73.94
2022-12-26T10:28:54.965Z,74.99
2022-12-26T10:31:41.504Z,73.62
2022-12-26T10:34:17.416Z,73.61
2022-12-26T10:36:48.826Z,73.08
2022-12-26T10:39:39.296Z,72.45
2022-12-26T10:42:26.078Z,74.62
2022-12-26T10:44:53.446Z,75.91
2022-12-26T10:47:39.281Z,75.17
2022-12-26T10:50:07.098Z,74.27
2022-12-26T10:52:38.061Z,74.51
2022-12-26T10:55:28.680Z,74.34
2022-12-26T10:57:54.464Z,73.61
2022-12-26T11:00:24.855Z,73.14
2022-12-26T11:03:12.514Z,73.52
2022-12-26T11:08:43.222Z,72.30
2022-12-26T11:11:46.278Z,72.15
2022-12-26T11:14:34.173Z,71.14
2022-12-26T11:17:06.457Z,71.33
2022-12-26T11:19:35.435Z,72.17
2022-12-26T11:22:28.674Z,72.21
2022-12-26T11:25:08.086Z,71.06
2022-12-26T11:27:39.578Z,71.21
2022-12-26T11:30:22.120Z,70.95
2022-12-26T11:33:22.267Z,70.32
2022-12-26T11:36:09.488Z,70.51
2022-12-26T11:38:58.660Z,70.54
2022-12-26T11:41:31.847Z,69.71
2022-12-26T11:44:22.619Z,70.64
2022-12-26T11:46:52.699Z,71.26
2022-12-26T11:49:52.276Z,71.69
2022-12-26T11:52:37.959Z,71.38
2022-12-26T11:55:27.033Z,70.49
2022-12-26T11:58:06.711Z,71.59
2022-12-26T12:00:35.585Z,70.81
2022-12-26T12:03:04.496Z,70.65
2022-12-26T12:05:53.739Z,70.63
2022-12-26T12:08:49.226Z,71.21
2022-12-26T12:11:41.408Z,70.99
2022-12-26T12:14:21.725Z,73.03
2022-12-26T12:16:52.400Z,75.84
2022-12-26T12:19:41.663Z,80.27
2022-12-26T12:22:32.742Z,81.93
2022-12-26T12:25:27.854Z,79.51
2022-12-26T12:28:12.145Z,83.56
2022-12-26T12:30:52.182Z,85.40
2022-12-26T12:33:32.495Z,84.77
2022-12-26T12:36:34.912Z,88.82
2022-12-26T12:39:11.567Z,89.10
2022-12-26T12:41:55.407Z,91.33
2022-12-26T12:44:45.020Z,88.23
2022-12-26T12:47:42.622Z,89.03
2022-12-26T12:50:40.951Z,91.36
2022-12-26T12:53:41.954Z,97.11
2022-12-26T12:56:30.891Z,95.02
2022-12-26T12:59:39.930Z,94.03
2022-12-26T13:02:20.724Z,90.74
2022-12-26T13:04:53.419Z,88.68
2022-12-26T13:07:27.183Z,87.96
2022-12-26T13:09:58.232Z,85.05
2022-12-26T13:12:35.095Z,81.94
2022-12-26T13:15:13.670Z,82.25
2022-12-26T13:17:48.265Z,79.98
2022-12-26T13:20:19.389Z,76.35
2022-12-26T13:23:23.585Z,75.44
2022-12-26T13:26:04.935Z,75.49
2022-12-26T13:28:34.561Z,73.75
2022-12-26T13:31:01.916Z,71.74
2022-12-26T13:33:30.022Z,72.27
2022-12-26T13:35:59.783Z,70.77
2022-12-26T13:38:56.224Z,71.62
2022-12-26T13:41:43.281Z,70.26
2022-12-26T13:44:20.056Z,72.05
2022-12-26T13:46:47.289Z,70.74
2022-12-26T13:49:27.233Z,68.92
2022-12-26T13:52:16.047Z,71.04
2022-12-26T13:54:54.193Z,68.97
2022-12-26T13:57:34.341Z,68.86
2022-12-26T14:00:06.361Z,71.36
2022-12-26T14:03:17.798Z,72.45
2022-12-26T14:06:13.213Z,67.35
2022-12-26T14:09:16.380Z,70.43
2022-12-26T14:11:55.805Z,68.50
2022-12-26T14:15:00.604Z,68.70
2022-12-26T14:17:40.085Z,70.11
2022-12-26T14:20:44.934Z,67.76
2022-12-26T14:23:31.232Z,68.26
2022-12-26T14:26:46.729Z,68.21
2022-12-26T14:29:58.659Z,67.80
2022-12-26T14:32:41.051Z,67.72
2022-12-26T14:35:14.706Z,67.86
2022-12-26T14:38:03.747Z,66.56
2022-12-26T14:40:36.243Z,68.17
2022-12-26T14:43:27.989Z,68.90
2022-12-26T14:45:57.552Z,67.30
2022-12-26T14:48:27.578Z,66.24
2022-12-26T14:51:04.038Z,64.99
2022-12-26T14:53:35.132Z,67.32
2022-12-26T14:56:10.408Z,67.77
2022-12-26T14:59:12.062Z,65.97
2022-12-26T15:01:39.647Z,66.37
2022-12-26T15:04:09.780Z,65.05
2022-12-26T15:06:55.790Z,65.48
2022-12-26T15:09:29.214Z,66.99
2022-12-26T15:12:24.448Z,68.12
2022-12-26T15:15:13.063Z,65.17
2022-12-26T15:18:06.549Z,64.15
2022-12-26T15:20:40.187Z,66.06
2022-12-26T15:23:42.735Z,64.72
2022-12-26T15:26:31.200Z,64.97
2022-12-26T15:29:04.472Z,65.73
2022-12-26T15:31:58.946Z,66.43
2022-12-26T15:34:38.421Z,71.04
2022-12-26T15:37:15.178Z,67.18
2022-12-26T15:40:19.708Z,66.61
2022-12-26T15:43:01.895Z,68.19
2022-12-26T15:45:39.957Z,66.64
2022-12-26T15:48:41.389Z,66.89
2022-12-26T15:51:15.014Z,68.87
2022-12-26T15:54:21.231Z,66.88
2022-12-26T15:57:08.568Z,68.00
2022-12-26T16:00:13.303Z,66.01
2022-12-26T16:02:47.845Z,65.46
2022-12-26T16:05:31.939Z,64.57
2022-12-26T16:08:17.974Z,65.81
2022-12-26T16:10:48.872Z,67.78
2022-12-26T16:13:23.198Z,67.61
2022-12-26T16:15:58.808Z,70.67
2022-12-26T16:18:30.981Z,68.25
2022-12-26T16:21:21.730Z,67.99
2022-12-26T16:23:51.346Z,64.08
2022-12-26T16:26:29.130Z,66.31
2022-12-26T16:28:58.557Z,64.94
2022-12-26T16:31:28.328Z,64.00
2022-12-26T16:33:57.876Z,64.14
2022-12-26T16:36:27.496Z,62.99
2022-12-26T16:38:55.917Z,63.91
2022-12-26T16:41:27.791Z,64.09
2022-12-26T16:43:57.190Z,63.24
2022-12-26T16:46:28.935Z,66.49
2022-12-26T16:48:58.716Z,63.93
2022-12-26T16:51:48.209Z,65.74
2022-12-26T16:54:19.795Z,62.02
2022-12-26T16:57:23.377Z,66.17
2022-12-26T16:59:57.732Z,67.06
2022-12-26T17:02:31.139Z,65.15
2022-12-26T17:05:18.580Z,63.84
2022-12-26T17:07:46.931Z,63.36
2022-12-26T17:10:20.039Z,62.35
2022-12-26T17:12:47.877Z,64.34
2022-12-26T17:15:24.319Z,65.03
2022-12-26T17:17:51.632Z,63.79
2022-12-26T17:20:21.798Z,65.12
2022-12-26T17:22:49.368Z,63.16
2022-12-26T17:25:21.136Z,63.37
2022-12-26T17:28:14.903Z,63.61
2022-12-26T17:30:44.691Z,62.25
2022-12-26T17:33:16.401Z,62.05
2022-12-26T17:38:39.201Z,63.94
2022-12-26T17:41:08.826Z,61.96
2022-12-26T17:43:37.585Z,64.21
2022-12-26T17:46:06.307Z,62.24
2022-12-26T17:48:34.923Z,63.48
2022-12-26T17:51:06.197Z,61.58
2022-12-26T17:53:35.162Z,60.99
2022-12-26T17:56:05.142Z,61.09
2022-12-26T17:58:33.280Z,64.48
2022-12-26T18:01:01.230Z,60.97
2022-12-26T18:03:28.663Z,63.38
2022-12-26T18:05:56.633Z,61.72
2022-12-26T18:08:31.565Z,62.30
2022-12-26T18:11:00.462Z,62.42
2022-12-26T18:13:28.169Z,62.94
2022-12-26T18:15:57.793Z,62.30
2022-12-26T18:18:39.764Z,61.99
2022-12-26T18:21:09.721Z,61.97
2022-12-26T18:23:37.788Z,62.30
2022-12-26T18:26:31.524Z,61.81
2022-12-26T18:28:59.212Z,62.19
2022-12-26T18:31:28.042Z,61.47
2022-12-26T18:33:55.950Z,61.52
2022-12-26T18:36:34.176Z,60.56
2022-12-26T18:39:02.031Z,61.14
2022-12-26T18:41:29.538Z,62.38
2022-12-26T18:43:58.211Z,63.16
2022-12-26T18:46:27.276Z,62.49
2022-12-26T18:48:56.724Z,63.34
2022-12-26T18:51:25.436Z,63.04
2022-12-26T18:53:52.765Z,62.15
2022-12-26T18:56:21.986Z,63.63
2022-12-26T18:58:57.133Z,59.73
2022-12-26T19:01:26.278Z,59.40
2022-12-26T19:03:54.047Z,60.44
2022-12-26T19:06:25.054Z,58.48
2022-12-26T19:08:52.669Z,56.16
2022-12-26T19:11:19.965Z,56.82
2022-12-26T19:13:47.419Z,58.25
2022-12-26T19:16:15.559Z,58.20
2022-12-26T19:18:42.979Z,59.05
2022-12-26T19:21:14.502Z,57.58
2022-12-26T19:23:42.777Z,57.82
2022-12-26T19:26:11.460Z,57.73
2022-12-26T19:28:39.365Z,58.69
2022-12-26T19:31:14.152Z,58.08
2022-12-26T19:33:41.835Z,58.91
2022-12-26T19:36:09.272Z,58.96
2022-12-26T19:38:37.250Z,59.95
2022-12-26T19:41:14.636Z,60.82
2022-12-26T19:43:43.034Z,60.44
2022-12-26T19:46:12.454Z,62.71
2022-12-26T19:48:39.846Z,57.55
2022-12-26T19:51:10.059Z,62.68
2022-12-26T19:53:40.263Z,61.41
2022-12-26T19:56:11.159Z,62.73
2022-12-26T19:58:38.596Z,61.43
2022-12-26T20:01:11.144Z,60.54
2022-12-26T20:03:39.892Z,61.84
2022-12-26T20:06:13.196Z,63.49
2022-12-26T20:08:41.064Z,62.35
2022-12-26T20:11:12.873Z,63.66
2022-12-26T20:13:42.063Z,62.88
2022-12-26T20:16:45.718Z,64.25
2022-12-26T20:19:02.709Z,64.82
2022-12-26T20:21:30.018Z,63.65
2022-12-26T20:24:01.280Z,58.80
2022-12-26T20:26:29.183Z,66.40
2022-12-26T20:28:58.459Z,62.55
2022-12-26T20:31:25.710Z,64.97
2022-12-26T20:33:53.422Z,65.98
2022-12-26T20:36:23.542Z,64.56
2022-12-26T20:38:55.825Z,64.75
2022-12-26T20:41:23.729Z,65.54
2022-12-26T20:43:52.028Z,67.16
2022-12-26T20:46:22.179Z,66.19
2022-12-26T20:48:52.185Z,62.55
2022-12-26T20:51:31.746Z,64.76
2022-12-26T20:54:04.550Z,65.91
2022-12-26T20:56:31.960Z,66.25
2022-12-26T20:58:59.751Z,66.23
2022-12-26T21:01:28.297Z,65.96
2022-12-26T21:03:56.701Z,65.34
2022-12-26T21:06:30.152Z,65.48
2022-12-26T21:08:57.875Z,66.94
2022-12-26T21:11:38.116Z,66.71
2022-12-26T21:14:08.544Z,66.20
2022-12-26T21:16:38.772Z,65.49
2022-12-26T21:19:12.312Z,66.36
2022-12-26T21:21:44.386Z,65.43
2022-12-26T21:24:23.890Z,66.81
2022-12-26T21:26:51.430Z,65.97
2022-12-26T21:29:23.250Z,65.89
2022-12-26T21:31:51.076Z,66.60
2022-12-26T21:34:20.135Z,66.88
2022-12-26T21:37:07.828Z,65.60
2022-12-26T21:39:36.289Z,65.67
2022-12-26T21:42:05.169Z,65.70
2022-12-26T21:44:32.891Z,64.91
2022-12-26T21:47:00.269Z,67.50
2022-12-26T21:49:27.922Z,68.39
2022-12-26T21:51:55.504Z,66.11
2022-12-26T21:54:48.369Z,65.54
2022-12-26T21:57:17.624Z,67.42
2022-12-26T21:59:57.742Z,66.70
2022-12-26T22:02:58.619Z,68.20
2022-12-26T22:05:28.263Z,66.00
2022-12-26T22:07:57.768Z,66.17
2022-12-26T22:10:44.901Z,68.18
2022-12-26T22:13:12.322Z,67.17
2022-12-26T22:16:02.808Z,67.83
2022-12-26T22:18:32.051Z,65.96
2022-12-26T22:21:04.517Z,65.55
2022-12-26T22:23:31.967Z,66.78
2022-12-26T22:25:59.425Z,67.02
2022-12-26T22:28:27.028Z,68.14
2022-12-26T22:30:54.473Z,67.18
2022-12-26T22:33:21.875Z,64.57
2022-12-26T22:35:49.141Z,67.92
2022-12-26T22:38:16.836Z,67.36
2022-12-26T22:40:58.085Z,65.93
2022-12-26T22:43:25.841Z,69.03
2022-12-26T22:45:53.432Z,71.10
2022-12-26T22:48:20.846Z,67.80
2022-12-26T22:50:51.083Z,71.03
2022-12-26T22:53:18.636Z,68.31
2022-12-26T22:55:48.566Z,67.66
2022-12-26T22:58:17.295Z,69.26
2022-12-26T23:00:45.207Z,70.40
2022-12-26T23:03:13.720Z,69.23
2022-12-26T23:05:41.619Z,65.88
2022-12-26T23:08:15.009Z,68.66
2022-12-26T23:10:42.808Z,68.55
2022-12-26T23:13:14.274Z,64.51
2022-12-26T23:15:51.250Z,71.43
2022-12-26T23:18:49.795Z,68.81
2022-12-26T23:21:44.952Z,70.99
2022-12-26T23:24:26.204Z,68.57
2022-12-26T23:26:56.193Z,70.14
2022-12-26T23:29:43.244Z,65.85
2022-12-26T23:32:10.876Z,68.86
2022-12-26T23:34:38.239Z,72.42
2022-12-26T23:37:05.584Z,69.99
2022-12-26T23:39:32.859Z,68.09
2022-12-26T23:42:00.115Z,66.54
2022-12-26T23:44:27.443Z,70.31
2022-12-26T23:46:54.785Z,69.69
2022-12-26T23:49:22.188Z,64.95
2022-12-26T23:51:49.400Z,71.79
2022-12-26T23:54:16.725Z,67.60
2022-12-26T23:56:44.038Z,64.81
2022-12-26T23:59:11.255Z,67.00
